createdAt,value
2019-01-31T00:03:35.079Z,22.17
2019-01-31T00:06:15.715Z,22.30
2019-01-31T00:08:56.417Z,23.07
2019-01-31T00:11:37.181Z,23.93
2019-01-31T00:14:17.951Z,22.50
2019-01-31T00:16:58.505Z,22.80
2019-01-31T00:19:39.605Z,24.63
2019-01-31T00:22:20.941Z,24.43
2019-01-31T00:25:02.581Z,23.63
2019-01-31T00:27:43.819Z,26.17
2019-01-31T00:30:29.930Z,23.77
2019-01-31T00:33:37.483Z,24.43
2019-01-31T00:36:18.652Z,24.37
2019-01-31T00:38:59.189Z,23.93
2019-01-31T00:41:39.945Z,24.13
2019-01-31T00:44:21.428Z,24.37
2019-01-31T00:50:51.817Z,22.67
2019-01-31T00:53:33.383Z,23.30
2019-01-31T00:56:14.137Z,22.17
2019-01-31T00:58:55.701Z,22.50
2019-01-31T01:01:36.948Z,21.80
2019-01-31T01:04:18.346Z,22.33
2019-01-31T01:06:59.950Z,22.43
2019-01-31T01:09:40.924Z,22.30
2019-01-31T01:12:22.042Z,21.57
2019-01-31T01:15:02.809Z,21.87
2019-01-31T01:17:44.269Z,22.33
2019-01-31T01:20:25.834Z,21.47
2019-01-31T01:23:06.662Z,21.67
2019-01-31T01:25:47.748Z,20.83
2019-01-31T01:28:28.892Z,19.67
2019-01-31T01:31:09.990Z,20.97
2019-01-31T01:33:50.627Z,20.63
2019-01-31T01:36:29.499Z,20.10
2019-01-31T01:42:08.826Z,18.97
2019-01-31T01:44:50.393Z,20.10
2019-01-31T01:47:31.822Z,19.90
2019-01-31T01:50:13.172Z,19.17
2019-01-31T01:52:53.916Z,19.37
2019-01-31T01:55:34.991Z,19.67
2019-01-31T01:58:16.312Z,18.80
2019-01-31T02:00:57.728Z,19.10
2019-01-31T02:03:39.058Z,20.67
2019-01-31T02:06:20.270Z,19.57
2019-01-31T02:09:01.809Z,19.37
2019-01-31T02:11:43.261Z,20.03
2019-01-31T02:14:48.695Z,18.37
2019-01-31T02:20:57.154Z,20.63
2019-01-31T02:23:37.856Z,20.73
2019-01-31T02:26:19.351Z,18.47
2019-01-31T02:29:00.115Z,16.80
2019-01-31T02:31:41.364Z,19.57
2019-01-31T02:34:22.640Z,15.17
2019-01-31T02:37:04.127Z,19.87
2019-01-31T02:39:45.634Z,19.90
2019-01-31T02:42:27.015Z,19.70
2019-01-31T02:45:08.603Z,18.70
2019-01-31T02:47:50.071Z,19.53
2019-01-31T02:50:30.617Z,20.07
2019-01-31T02:53:11.729Z,19.70
2019-01-31T02:55:52.435Z,18.83
2019-01-31T02:58:33.941Z,19.10
2019-01-31T03:01:15.007Z,19.00
2019-01-31T03:03:56.122Z,17.87
2019-01-31T03:06:36.871Z,19.40
2019-01-31T03:09:18.232Z,19.20
2019-01-31T03:11:59.167Z,18.20
2019-01-31T03:14:40.010Z,19.07
2019-01-31T03:17:21.074Z,17.73
2019-01-31T03:20:02.274Z,17.77
2019-01-31T03:22:43.016Z,17.57
2019-01-31T03:25:23.786Z,18.10
2019-01-31T03:28:04.514Z,17.60
2019-01-31T03:30:45.470Z,18.97
2019-01-31T03:33:26.683Z,18.07
2019-01-31T03:36:07.407Z,17.67
2019-01-31T03:38:48.955Z,17.50
2019-01-31T03:41:29.537Z,14.33
2019-01-31T03:44:10.791Z,18.60
2019-01-31T03:46:52.291Z,16.93
2019-01-31T03:49:33.117Z,19.60
2019-01-31T03:52:14.370Z,19.00
2019-01-31T03:54:55.599Z,19.40
2019-01-31T03:57:37.191Z,18.57
2019-01-31T04:00:22.290Z,18.77
2019-01-31T04:03:02.904Z,18.30
2019-01-31T04:05:43.549Z,18.00
2019-01-31T04:08:24.720Z,17.87
2019-01-31T04:11:05.811Z,17.83
2019-01-31T04:13:46.632Z,18.50
2019-01-31T04:16:27.819Z,19.00
2019-01-31T04:19:08.583Z,19.47
2019-01-31T04:21:49.779Z,18.80
2019-01-31T04:24:30.464Z,18.30
2019-01-31T04:27:10.026Z,18.07
2019-01-31T04:29:51.407Z,19.17
2019-01-31T04:32:32.945Z,18.90
2019-01-31T04:35:14.047Z,18.23
2019-01-31T04:37:55.364Z,19.53
2019-01-31T04:40:36.898Z,19.10
2019-01-31T04:43:18.480Z,17.47
2019-01-31T04:46:00.053Z,18.97
2019-01-31T04:48:40.850Z,17.93
2019-01-31T04:51:20.269Z,19.30
2019-01-31T04:57:09.305Z,18.20
2019-01-31T04:59:50.181Z,18.70
2019-01-31T05:02:31.353Z,17.10
2019-01-31T05:05:11.975Z,17.37
2019-01-31T05:07:53.117Z,18.03
2019-01-31T05:10:42.780Z,17.57
2019-01-31T05:13:16.577Z,17.17
2019-01-31T05:15:57.932Z,17.57
2019-01-31T05:18:37.902Z,17.73
2019-01-31T05:24:26.191Z,17.20
2019-01-31T05:27:07.500Z,17.50
2019-01-31T05:29:48.519Z,17.90
2019-01-31T05:32:29.659Z,19.23
2019-01-31T05:35:11.183Z,19.60
2019-01-31T05:37:52.556Z,20.50
2019-01-31T05:40:33.199Z,19.83
2019-01-31T05:43:12.607Z,21.07
2019-01-31T05:45:53.451Z,22.43
2019-01-31T05:48:34.964Z,22.67
2019-01-31T05:51:16.106Z,22.60
2019-01-31T05:53:57.581Z,23.03
2019-01-31T05:56:39.026Z,23.20
2019-01-31T05:59:19.970Z,22.70
2019-01-31T06:02:01.413Z,24.43
2019-01-31T06:04:42.004Z,24.07
2019-01-31T06:07:23.366Z,24.20
2019-01-31T06:10:04.192Z,24.00
2019-01-31T06:12:43.640Z,22.87
2019-01-31T06:15:32.117Z,22.23
2019-01-31T06:18:12.899Z,24.50
2019-01-31T06:20:54.019Z,23.70
2019-01-31T06:23:35.443Z,22.30
2019-01-31T06:26:16.358Z,24.17
2019-01-31T06:28:57.869Z,22.90
2019-01-31T06:31:39.134Z,23.10
2019-01-31T06:34:20.423Z,21.93
2019-01-31T06:37:01.625Z,22.10
2019-01-31T06:39:42.298Z,21.13
2019-01-31T06:42:23.005Z,21.90
2019-01-31T06:45:03.586Z,23.17
2019-01-31T06:47:43.603Z,23.43
2019-01-31T06:50:24.240Z,23.37
2019-01-31T06:53:05.773Z,21.97
2019-01-31T06:58:13.516Z,22.00
2019-01-31T07:00:54.235Z,21.37
2019-01-31T07:03:33.828Z,23.37
2019-01-31T07:06:22.380Z,21.30
2019-01-31T07:09:03.080Z,21.70
2019-01-31T07:11:44.432Z,20.07
2019-01-31T07:14:25.643Z,20.33
2019-01-31T07:17:06.865Z,20.30
2019-01-31T07:19:48.048Z,20.43
2019-01-31T07:22:27.603Z,19.40
2019-01-31T07:25:08.305Z,20.73
2019-01-31T07:27:49.853Z,20.70
2019-01-31T07:30:30.799Z,20.63
2019-01-31T07:33:12.195Z,20.13
2019-01-31T07:35:53.607Z,18.30
2019-01-31T07:38:34.379Z,16.87
2019-01-31T07:41:15.637Z,19.73
2019-01-31T07:43:57.205Z,20.47
2019-01-31T07:46:38.796Z,17.47
2019-01-31T07:49:20.115Z,17.80
2019-01-31T07:52:01.620Z,19.03
2019-01-31T07:54:42.768Z,19.30
2019-01-31T07:57:23.769Z,18.87
2019-01-31T08:00:04.485Z,18.40
2019-01-31T08:02:44.055Z,18.33
2019-01-31T08:08:32.319Z,18.43
2019-01-31T08:11:13.634Z,17.83
2019-01-31T08:13:55.056Z,15.67
2019-01-31T08:16:36.060Z,16.87
2019-01-31T08:19:17.092Z,17.40
2019-01-31T08:21:57.919Z,19.50
2019-01-31T08:24:39.059Z,18.43
2019-01-31T08:27:18.521Z,18.27
2019-01-31T08:29:59.247Z,16.83
2019-01-31T08:32:37.660Z,18.03
2019-01-31T08:41:16.025Z,16.63
2019-01-31T08:43:57.274Z,13.77
2019-01-31T08:46:38.177Z,15.40
2019-01-31T08:49:18.359Z,15.87
2019-01-31T08:51:56.848Z,14.87
2019-01-31T08:54:36.791Z,15.33
2019-01-31T08:57:15.339Z,13.93
2019-01-31T08:59:53.777Z,13.43
2019-01-31T10:25:53.713Z,9.33
2019-01-31T10:28:54.454Z,10.57
2019-01-31T10:31:35.688Z,9.07
2019-01-31T10:34:16.299Z,9.67
2019-01-31T10:36:56.896Z,10.80
2019-01-31T10:39:37.606Z,9.90
2019-01-31T10:42:18.218Z,9.27
2019-01-31T10:44:59.591Z,9.37
2019-01-31T10:47:47.509Z,9.57
2019-01-31T10:53:38.773Z,8.27
2019-01-31T10:56:19.890Z,7.60
2019-01-31T10:59:00.685Z,7.62
2019-01-31T11:01:41.711Z,7.50
2019-01-31T11:04:23.134Z,8.33
2019-01-31T11:07:04.691Z,8.60
2019-01-31T11:09:46.273Z,8.67
2019-01-31T11:12:27.211Z,7.40
2019-01-31T11:15:08.756Z,8.03
2019-01-31T11:17:50.275Z,7.53
2019-01-31T11:20:31.604Z,7.63
2019-01-31T11:23:13.108Z,7.47
2019-01-31T11:25:54.635Z,7.97
2019-01-31T11:28:36.217Z,7.80
2019-01-31T16:10:55.936Z,11.37
2019-01-31T16:13:36.985Z,11.53
2019-01-31T16:16:20.151Z,12.33
2019-01-31T16:19:01.269Z,12.00
2019-01-31T16:21:42.822Z,10.70
2019-01-31T16:24:24.294Z,11.83
2019-01-31T16:27:05.822Z,10.80
2019-01-31T16:29:47.208Z,10.97
2019-01-31T16:32:28.129Z,10.70
2019-01-31T16:35:08.914Z,11.27
2019-01-31T16:37:49.861Z,12.03
2019-01-31T16:40:30.532Z,11.83
2019-01-31T16:43:11.994Z,11.13
2019-01-31T16:45:52.977Z,11.37
2019-01-31T16:48:34.397Z,11.20
2019-01-31T16:51:15.982Z,11.40
2019-01-31T16:53:57.196Z,11.50
2019-01-31T16:56:38.527Z,10.63
2019-01-31T16:59:19.991Z,11.53
2019-01-31T17:01:59.513Z,11.90
2019-01-31T17:04:41.013Z,11.57
2019-01-31T17:07:22.019Z,11.63
2019-01-31T17:10:03.506Z,11.67
2019-01-31T17:12:43.051Z,11.43
2019-01-31T17:15:24.531Z,10.40
2019-01-31T17:18:05.327Z,11.80
2019-01-31T17:20:46.932Z,12.00
2019-01-31T17:23:28.372Z,11.10
2019-01-31T17:26:09.847Z,11.10
2019-01-31T17:28:50.475Z,11.80
2019-01-31T17:31:31.808Z,11.60
2019-01-31T17:34:13.289Z,11.83
2019-01-31T17:36:53.986Z,11.90
2019-01-31T17:39:35.339Z,19.03
2019-01-31T17:42:16.901Z,15.83
2019-01-31T17:44:57.479Z,17.13
2019-01-31T17:47:38.242Z,15.70
2019-01-31T17:50:19.702Z,14.93
2019-01-31T17:53:00.927Z,14.43
2019-01-31T17:55:41.883Z,17.00
2019-01-31T17:58:22.797Z,18.53
2019-01-31T18:01:04.547Z,16.60
2019-01-31T18:03:45.401Z,17.10
2019-01-31T18:06:26.825Z,16.77
2019-01-31T18:09:08.979Z,16.27
2019-01-31T18:14:57.569Z,15.93
2019-01-31T18:17:38.770Z,14.43
2019-01-31T18:20:19.790Z,14.77
2019-01-31T18:23:01.294Z,15.20
2019-01-31T18:25:42.123Z,15.43
2019-01-31T18:28:21.766Z,16.20
2019-01-31T18:31:03.243Z,15.37
2019-01-31T18:33:42.878Z,15.27
2019-01-31T18:36:24.065Z,15.67
2019-01-31T18:39:05.488Z,15.57
2019-01-31T18:41:46.558Z,16.40
2019-01-31T18:44:27.143Z,17.23
2019-01-31T18:47:08.207Z,17.60
2019-01-31T18:49:49.574Z,17.60
2019-01-31T18:52:30.811Z,18.27
2019-01-31T18:55:11.668Z,17.77
2019-01-31T18:57:52.292Z,19.63
2019-01-31T19:00:33.569Z,21.77
2019-01-31T19:03:14.368Z,21.53
2019-01-31T19:05:55.653Z,21.00
2019-01-31T19:08:37.036Z,19.43
2019-01-31T19:11:18.458Z,20.53
2019-01-31T19:13:59.830Z,20.43
2019-01-31T19:16:40.963Z,20.03
2019-01-31T19:19:22.188Z,20.67
2019-01-31T19:22:02.792Z,20.17
2019-01-31T19:24:43.854Z,19.43
2019-01-31T19:27:25.033Z,19.23
2019-01-31T19:30:05.980Z,20.83
2019-01-31T19:32:47.223Z,20.40
2019-01-31T19:35:28.735Z,21.77
2019-01-31T19:38:09.745Z,23.27
2019-01-31T19:40:50.412Z,24.80
2019-01-31T19:43:30.441Z,24.50
2019-01-31T19:46:16.489Z,26.97
2019-01-31T19:48:54.145Z,26.47
2019-01-31T19:51:35.065Z,27.33
2019-01-31T19:54:15.813Z,24.43
2019-01-31T19:56:57.110Z,22.57
2019-01-31T19:59:37.853Z,21.20
2019-01-31T20:02:18.452Z,19.10
2019-01-31T20:04:57.978Z,19.13
2019-01-31T20:07:38.719Z,17.60
2019-01-31T20:10:20.213Z,16.27
2019-01-31T20:13:01.583Z,17.27
2019-01-31T20:15:43.034Z,18.53
2019-01-31T20:18:24.259Z,18.00
2019-01-31T20:21:05.306Z,17.53
2019-01-31T20:23:44.741Z,18.30
2019-01-31T20:26:33.166Z,20.37
2019-01-31T20:29:14.312Z,19.73
2019-01-31T20:31:55.511Z,19.60
2019-01-31T20:34:37.999Z,23.43
2019-01-31T20:37:18.707Z,30.70
2019-01-31T20:39:59.889Z,31.10
2019-01-31T20:42:40.605Z,37.30
2019-01-31T20:45:21.612Z,33.17
2019-01-31T20:48:03.206Z,32.83
2019-01-31T20:50:44.258Z,33.60
2019-01-31T20:53:25.578Z,30.70
2019-01-31T20:56:06.679Z,29.13
2019-01-31T20:58:48.008Z,27.27
2019-01-31T21:01:29.152Z,24.70
2019-01-31T21:04:10.758Z,25.63
2019-01-31T21:06:50.714Z,23.67
2019-01-31T21:09:39.231Z,23.63
2019-01-31T21:12:20.036Z,23.20
2019-01-31T21:15:01.366Z,22.23
2019-01-31T21:17:42.509Z,22.00
2019-01-31T21:20:26.225Z,21.83
2019-01-31T21:23:06.241Z,21.63
2019-01-31T21:25:45.740Z,22.67
2019-01-31T21:28:26.347Z,22.23
2019-01-31T21:31:06.966Z,23.27
2019-01-31T21:33:48.456Z,23.67
2019-01-31T21:36:29.904Z,22.47
2019-01-31T21:39:11.295Z,24.23
2019-01-31T21:41:50.740Z,22.27
2019-01-31T21:44:31.596Z,23.23
2019-01-31T21:47:13.118Z,23.40
2019-01-31T21:49:54.088Z,22.33
2019-01-31T21:52:34.876Z,22.50
2019-01-31T21:55:16.295Z,22.17
2019-01-31T21:57:57.813Z,21.90
2019-01-31T22:00:38.814Z,24.47
2019-01-31T22:03:19.546Z,22.63
2019-01-31T22:06:00.569Z,23.67
2019-01-31T22:08:41.942Z,24.07
2019-01-31T22:11:21.973Z,23.63
2019-01-31T22:17:14.822Z,25.03
2019-01-31T22:19:53.035Z,26.87
2019-01-31T22:22:34.140Z,23.93
2019-01-31T22:25:14.916Z,22.93
2019-01-31T22:27:56.424Z,24.40
2019-01-31T22:30:37.936Z,22.90
2019-01-31T22:33:19.294Z,23.17
2019-01-31T22:36:00.600Z,22.07
2019-01-31T22:38:41.775Z,21.23
2019-01-31T22:41:23.044Z,21.87
2019-01-31T22:44:04.551Z,23.20
2019-01-31T22:46:45.531Z,22.07
2019-01-31T22:49:26.875Z,21.73
2019-01-31T22:52:07.838Z,23.47
2019-01-31T22:54:48.914Z,23.20
2019-01-31T22:57:30.164Z,22.53
2019-01-31T23:00:11.912Z,23.67
2019-01-31T23:02:52.674Z,23.40
2019-01-31T23:05:34.017Z,23.30
2019-01-31T23:08:15.476Z,23.27
2019-01-31T23:10:56.021Z,24.27
2019-01-31T23:13:36.730Z,23.70
2019-01-31T23:16:17.322Z,24.90
2019-01-31T23:18:58.659Z,25.80
2019-01-31T23:21:39.661Z,25.17
2019-01-31T23:24:20.651Z,26.40
2019-01-31T23:27:02.207Z,26.67
2019-01-31T23:29:43.739Z,26.57
2019-01-31T23:32:25.208Z,25.30
2019-01-31T23:35:06.631Z,27.57
2019-01-31T23:37:47.647Z,26.47
2019-01-31T23:40:29.164Z,26.83
2019-01-31T23:43:09.778Z,27.77
2019-01-31T23:45:51.164Z,26.50
2019-01-31T23:48:32.213Z,28.00
2019-01-31T23:51:13.449Z,28.87
2019-01-31T23:53:54.594Z,30.50
2019-01-31T23:56:33.026Z,31.07
2019-01-31T23:59:14.576Z,29.93
